createdAt,value
2022-10-23T00:01:44.995Z,82.63
2022-10-23T00:04:14.798Z,82.24
2022-10-23T00:06:43.266Z,82.19
2022-10-23T00:09:12.816Z,81.96
2022-10-23T00:11:41.494Z,82.23
2022-10-23T00:14:09.237Z,81.74
2022-10-23T00:16:36.173Z,82.28
2022-10-23T00:19:04.165Z,82.00
2022-10-23T00:21:32.693Z,81.84
2022-10-23T00:23:59.914Z,81.97
2022-10-23T00:26:26.980Z,81.85
2022-10-23T00:28:55.262Z,82.14
2022-10-23T00:31:23.568Z,82.28
2022-10-23T00:33:51.601Z,82.35
2022-10-23T00:36:20.796Z,81.91
2022-10-23T00:38:48.704Z,81.95
2022-10-23T00:41:19.389Z,81.51
2022-10-23T00:44:23.294Z,81.52
2022-10-23T00:46:50.186Z,81.49
2022-10-23T00:49:17.726Z,81.38
2022-10-23T00:51:50.687Z,81.21
2022-10-23T00:54:25.073Z,81.39
2022-10-23T00:56:56.177Z,81.38
2022-10-23T00:59:23.593Z,81.56
2022-10-23T01:01:50.452Z,80.37
2022-10-23T01:04:17.398Z,80.08
2022-10-23T01:06:50.974Z,80.25
2022-10-23T01:09:20.652Z,80.11
2022-10-23T01:11:55.847Z,79.76
2022-10-23T01:14:31.721Z,80.32
2022-10-23T01:17:11.868Z,79.10
2022-10-23T01:20:05.119Z,79.82
2022-10-23T01:22:49.962Z,79.88
2022-10-23T01:25:19.329Z,79.36
2022-10-23T01:27:50.095Z,78.90
2022-10-23T01:30:18.006Z,79.90
2022-10-23T01:32:48.461Z,80.06
2022-10-23T01:35:22.263Z,80.34
2022-10-23T01:38:00.977Z,79.41
2022-10-23T01:40:53.974Z,79.90
2022-10-23T01:43:27.359Z,79.85
2022-10-23T01:45:59.542Z,79.95
2022-10-23T01:48:32.252Z,78.86
2022-10-23T01:51:05.545Z,78.89
2022-10-23T01:53:36.305Z,79.20
2022-10-23T01:56:07.376Z,79.76
2022-10-23T01:58:36.216Z,79.37
2022-10-23T02:01:06.230Z,79.50
2022-10-23T02:03:33.611Z,82.00
2022-10-23T02:06:00.404Z,83.14
2022-10-23T02:08:28.034Z,83.09
2022-10-23T02:11:13.271Z,83.22
2022-10-23T02:13:49.545Z,82.97
2022-10-23T02:16:22.119Z,82.54
2022-10-23T02:19:02.718Z,81.72
2022-10-23T02:21:50.527Z,81.40
2022-10-23T02:24:24.573Z,81.69
2022-10-23T02:26:57.167Z,81.12
2022-10-23T02:29:33.003Z,81.24
2022-10-23T02:31:59.875Z,81.59
2022-10-23T02:34:26.928Z,81.56
2022-10-23T02:36:53.995Z,81.46
2022-10-23T02:39:25.318Z,80.88
2022-10-23T02:42:01.214Z,80.69
2022-10-23T02:44:48.100Z,79.60
2022-10-23T02:47:43.130Z,79.10
2022-10-23T02:50:33.350Z,78.45
2022-10-23T02:53:21.342Z,78.57
2022-10-23T02:56:08.833Z,78.00
2022-10-23T02:58:48.495Z,78.56
2022-10-23T03:01:20.135Z,78.70
2022-10-23T03:03:54.345Z,78.56
2022-10-23T03:06:22.902Z,79.01
2022-10-23T03:09:00.041Z,80.22
2022-10-23T03:11:26.990Z,81.60
2022-10-23T03:13:53.663Z,82.01
2022-10-23T03:16:20.530Z,82.57
2022-10-23T03:18:47.346Z,82.61
2022-10-23T03:21:14.063Z,82.75
2022-10-23T03:23:40.895Z,83.40
2022-10-23T03:26:07.914Z,83.76
2022-10-23T03:28:35.636Z,84.22
2022-10-23T03:31:03.146Z,84.67
2022-10-23T03:33:31.110Z,84.97
2022-10-23T03:35:57.939Z,85.25
2022-10-23T03:38:24.811Z,85.21
2022-10-23T03:40:51.585Z,86.09
2022-10-23T03:43:18.310Z,86.14
2022-10-23T03:45:45.092Z,86.75
2022-10-23T03:48:11.919Z,86.57
2022-10-23T03:50:38.610Z,86.42
2022-10-23T03:53:05.521Z,87.36
2022-10-23T03:55:32.417Z,88.11
2022-10-23T03:57:59.165Z,88.18
2022-10-23T04:00:26.001Z,89.18
2022-10-23T04:02:52.690Z,89.81
2022-10-23T04:05:19.401Z,89.76
2022-10-23T04:07:46.216Z,89.96
2022-10-23T04:10:13.034Z,90.01
2022-10-23T04:12:39.889Z,89.76
2022-10-23T04:15:07.397Z,89.95
2022-10-23T04:17:34.227Z,89.93
2022-10-23T04:20:00.944Z,90.32
2022-10-23T04:22:28.611Z,90.08
2022-10-23T04:24:55.851Z,89.89
2022-10-23T04:27:23.181Z,90.25
2022-10-23T04:29:50.579Z,90.33
2022-10-23T04:32:18.320Z,90.90
2022-10-23T04:34:45.029Z,91.15
2022-10-23T04:37:11.760Z,91.55
2022-10-23T04:39:38.479Z,91.63
2022-10-23T04:42:05.328Z,91.52
2022-10-23T04:44:32.058Z,91.57
2022-10-23T04:46:58.826Z,91.84
2022-10-23T04:49:25.618Z,92.23
2022-10-23T04:51:52.430Z,92.24
2022-10-23T04:54:19.108Z,92.51
2022-10-23T04:56:45.837Z,92.13
2022-10-23T04:59:12.678Z,91.64
2022-10-23T05:01:39.518Z,91.84
2022-10-23T05:04:06.321Z,92.40
2022-10-23T05:06:33.204Z,92.63
2022-10-23T05:09:00.009Z,92.69
2022-10-23T05:11:26.737Z,93.03
2022-10-23T05:13:53.587Z,93.19
2022-10-23T05:16:37.219Z,92.91
2022-10-23T05:19:07.247Z,93.28
2022-10-23T05:21:35.510Z,93.67
2022-10-23T05:24:02.402Z,93.74
2022-10-23T05:26:31.595Z,93.76
2022-10-23T05:28:58.363Z,92.99
2022-10-23T05:31:25.986Z,92.76
2022-10-23T05:33:55.644Z,92.48
2022-10-23T05:36:24.226Z,91.76
2022-10-23T05:38:51.328Z,91.97
2022-10-23T05:41:18.420Z,91.59
2022-10-23T05:43:46.342Z,91.25
2022-10-23T05:46:13.311Z,91.29
2022-10-23T05:48:40.120Z,90.64
2022-10-23T05:51:09.249Z,90.33
2022-10-23T05:53:38.767Z,90.63
2022-10-23T05:56:09.670Z,90.62
2022-10-23T05:58:36.490Z,90.13
2022-10-23T06:01:11.223Z,90.08
2022-10-23T06:03:38.989Z,90.15
2022-10-23T06:06:07.401Z,90.07
2022-10-23T06:08:37.418Z,89.79
2022-10-23T06:11:11.313Z,90.34
2022-10-23T06:13:38.487Z,89.48
2022-10-23T06:16:18.669Z,89.40
2022-10-23T06:18:46.721Z,89.62
2022-10-23T06:21:14.342Z,89.61
2022-10-23T06:23:42.229Z,88.78
2022-10-23T06:26:12.685Z,88.28
2022-10-23T06:28:39.945Z,88.33
2022-10-23T06:31:08.681Z,88.66
2022-10-23T06:33:36.005Z,88.79
2022-10-23T06:36:03.767Z,88.48
2022-10-23T06:38:36.718Z,89.19
2022-10-23T06:41:05.147Z,89.08
2022-10-23T06:43:31.870Z,89.19
2022-10-23T06:46:04.142Z,89.10
2022-10-23T06:48:32.007Z,88.73
2022-10-23T06:50:59.730Z,89.06
2022-10-23T06:53:26.653Z,88.93
2022-10-23T06:55:55.500Z,89.36
2022-10-23T06:58:22.464Z,89.05
2022-10-23T07:00:49.285Z,89.30
2022-10-23T07:03:16.117Z,88.88
2022-10-23T07:05:44.938Z,89.02
2022-10-23T07:08:11.875Z,89.04
2022-10-23T07:10:38.812Z,88.48
2022-10-23T07:13:05.575Z,88.67
2022-10-23T07:15:32.389Z,89.00
2022-10-23T07:17:59.085Z,88.79
2022-10-23T07:20:26.107Z,88.77
2022-10-23T07:22:54.804Z,89.35
2022-10-23T07:25:22.840Z,88.87
2022-10-23T07:27:50.384Z,89.55
2022-10-23T07:30:17.683Z,89.49
2022-10-23T07:32:44.896Z,89.72
2022-10-23T07:37:45.030Z,89.53
2022-10-23T07:40:12.700Z,89.48
2022-10-23T07:42:39.473Z,89.64
2022-10-23T07:45:09.013Z,89.25
2022-10-23T07:47:35.718Z,88.77
2022-10-23T07:50:02.487Z,88.48
2022-10-23T07:52:32.088Z,88.43
2022-10-23T07:55:02.002Z,88.52
2022-10-23T07:57:28.698Z,88.16
2022-10-23T07:59:55.516Z,87.67
2022-10-23T08:02:22.343Z,87.41
2022-10-23T08:04:50.271Z,87.53
2022-10-23T08:07:17.136Z,87.90
2022-10-23T08:09:43.856Z,87.97
2022-10-23T08:12:10.565Z,87.97
2022-10-23T08:14:39.254Z,87.58
2022-10-23T08:17:09.847Z,88.44
2022-10-23T08:19:37.022Z,88.71
2022-10-23T08:22:04.098Z,88.58
2022-10-23T08:24:31.246Z,88.46
2022-10-23T08:26:58.816Z,88.29
2022-10-23T08:29:25.780Z,87.98
2022-10-23T08:31:57.516Z,88.46
2022-10-23T08:34:24.526Z,88.62
2022-10-23T08:36:51.485Z,88.79
2022-10-23T08:39:18.246Z,89.17
2022-10-23T08:41:51.217Z,89.56
2022-10-23T08:44:40.508Z,89.50
2022-10-23T08:47:11.858Z,91.09
2022-10-23T08:49:52.246Z,90.96
2022-10-23T08:52:39.625Z,91.56
2022-10-23T08:55:15.385Z,91.84
2022-10-23T08:57:51.751Z,92.06
2022-10-23T09:00:19.516Z,92.62
2022-10-23T09:02:51.549Z,92.70
2022-10-23T09:05:50.800Z,93.08
2022-10-23T09:09:12.796Z,93.06
2022-10-23T09:11:50.945Z,92.50
2022-10-23T09:14:25.169Z,92.87
2022-10-23T09:17:07.171Z,92.43
2022-10-23T09:19:33.914Z,92.48
2022-10-23T09:22:01.249Z,92.56
2022-10-23T09:24:31.977Z,92.92
2022-10-23T09:27:01.129Z,93.29
2022-10-23T09:29:36.067Z,93.34
2022-10-23T09:32:05.833Z,93.19
2022-10-23T09:34:34.991Z,93.22
2022-10-23T09:37:21.502Z,92.81
2022-10-23T09:39:48.432Z,93.65
2022-10-23T09:42:25.060Z,93.13
2022-10-23T09:44:54.176Z,93.80
2022-10-23T09:47:24.456Z,93.99
2022-10-23T09:49:57.304Z,93.87
2022-10-23T09:52:28.414Z,94.12
2022-10-23T09:54:58.636Z,94.18
2022-10-23T09:57:42.853Z,94.28
2022-10-23T10:00:16.441Z,94.86
2022-10-23T10:02:54.914Z,94.21
2022-10-23T10:05:24.957Z,93.74
2022-10-23T10:08:00.242Z,93.99
2022-10-23T10:10:34.994Z,93.55
2022-10-23T10:13:19.138Z,93.57
2022-10-23T10:15:55.466Z,92.96
2022-10-23T10:18:37.333Z,93.23
2022-10-23T10:21:14.051Z,92.49
2022-10-23T10:24:00.565Z,91.54
2022-10-23T10:26:45.544Z,90.93
2022-10-23T10:29:16.670Z,90.86
2022-10-23T10:32:02.217Z,89.66
2022-10-23T10:34:46.574Z,89.50
2022-10-23T10:37:29.742Z,89.80
2022-10-23T10:40:02.401Z,89.89
2022-10-23T10:42:50.170Z,89.03
2022-10-23T10:45:30.297Z,88.90
2022-10-23T10:48:15.760Z,87.82
2022-10-23T10:51:05.914Z,88.81
2022-10-23T10:53:47.826Z,89.79
2022-10-23T10:56:18.621Z,89.79
2022-10-23T10:58:59.582Z,90.90
2022-10-23T11:01:56.747Z,91.04
2022-10-23T11:04:41.163Z,91.14
2022-10-23T11:07:13.311Z,93.00
2022-10-23T11:09:41.746Z,90.88
2022-10-23T11:12:18.058Z,89.56
2022-10-23T11:14:45.340Z,89.52
2022-10-23T11:17:25.529Z,87.10
2022-10-23T11:20:04.314Z,87.03
2022-10-23T11:22:46.901Z,86.65
2022-10-23T11:25:35.169Z,87.07
2022-10-23T11:28:19.445Z,86.86
2022-10-23T11:31:12.344Z,85.03
2022-10-23T11:33:47.790Z,87.10
2022-10-23T11:36:41.379Z,82.54
2022-10-23T11:39:21.873Z,80.58
2022-10-23T11:41:56.185Z,82.26
2022-10-23T11:44:36.768Z,82.41
2022-10-23T11:47:37.961Z,79.81
2022-10-23T11:50:09.242Z,81.04
2022-10-23T11:52:45.700Z,84.01
2022-10-23T11:55:27.866Z,81.49
2022-10-23T11:58:24.274Z,79.66
2022-10-23T12:01:25.681Z,79.87
2022-10-23T12:04:00.938Z,82.61
2022-10-23T12:06:31.493Z,83.77
2022-10-23T12:09:03.697Z,80.26
2022-10-23T12:11:47.449Z,81.29
2022-10-23T12:14:36.445Z,77.48
2022-10-23T12:17:18.946Z,80.25
2022-10-23T12:19:51.688Z,80.49
2022-10-23T12:22:20.999Z,79.76
2022-10-23T12:24:53.790Z,74.38
2022-10-23T12:27:39.965Z,75.22
2022-10-23T12:30:14.808Z,72.64
2022-10-23T12:32:47.543Z,74.65
2022-10-23T12:35:47.801Z,74.12
2022-10-23T12:38:22.440Z,73.32
2022-10-23T12:40:55.585Z,70.47
2022-10-23T12:43:25.337Z,72.39
2022-10-23T12:45:53.027Z,71.60
2022-10-23T12:48:22.613Z,70.96
2022-10-23T12:50:55.175Z,70.50
2022-10-23T12:53:23.811Z,73.21
2022-10-23T12:58:32.943Z,71.05
2022-10-23T13:01:03.128Z,72.30
2022-10-23T13:03:32.069Z,73.70
2022-10-23T13:06:00.170Z,73.52
2022-10-23T13:08:33.914Z,73.06
2022-10-23T13:11:01.065Z,74.91
2022-10-23T13:13:28.249Z,77.11
2022-10-23T13:15:54.995Z,79.86
2022-10-23T13:18:21.871Z,80.87
2022-10-23T13:20:51.719Z,82.14
2022-10-23T13:23:18.720Z,84.62
2022-10-23T13:26:03.373Z,84.51
2022-10-23T13:28:44.690Z,84.89
2022-10-23T13:31:12.509Z,85.47
2022-10-23T13:33:41.560Z,85.83
2022-10-23T13:36:14.149Z,86.54
2022-10-23T13:38:46.096Z,86.84
2022-10-23T13:41:18.318Z,86.91
2022-10-23T13:43:46.628Z,86.85
2022-10-23T13:46:18.354Z,86.56
2022-10-23T13:48:45.469Z,86.47
2022-10-23T13:51:14.717Z,86.85
2022-10-23T13:53:41.833Z,86.90
2022-10-23T13:56:12.000Z,86.20
2022-10-23T13:58:39.276Z,86.42
2022-10-23T14:01:07.333Z,86.24
2022-10-23T14:03:34.141Z,85.60
2022-10-23T14:06:01.470Z,85.88
2022-10-23T14:08:28.308Z,85.53
2022-10-23T14:10:55.001Z,86.04
2022-10-23T14:13:21.789Z,85.27
2022-10-23T14:15:54.613Z,84.92
2022-10-23T14:18:21.989Z,85.07
2022-10-23T14:20:49.221Z,84.53
2022-10-23T14:23:16.063Z,84.06
2022-10-23T14:25:42.798Z,83.78
2022-10-23T14:28:10.021Z,83.99
2022-10-23T14:30:39.508Z,83.56
2022-10-23T14:33:06.285Z,83.88
2022-10-23T14:35:33.016Z,84.67
2022-10-23T14:37:59.908Z,85.32
2022-10-23T14:40:26.620Z,86.16
2022-10-23T14:42:53.322Z,86.21
2022-10-23T14:45:20.210Z,86.26
2022-10-23T14:47:47.056Z,85.92
2022-10-23T14:50:14.220Z,85.81
2022-10-23T14:52:41.055Z,85.43
2022-10-23T14:55:08.264Z,85.70
2022-10-23T14:57:35.024Z,85.32
2022-10-23T15:00:01.936Z,84.77
2022-10-23T15:02:28.601Z,85.39
2022-10-23T15:04:55.573Z,85.76
2022-10-23T15:07:22.438Z,86.66
2022-10-23T15:09:50.783Z,87.13
2022-10-23T15:12:18.198Z,88.13
2022-10-23T15:14:45.010Z,87.20
2022-10-23T15:17:15.432Z,87.26
2022-10-23T15:19:42.787Z,87.51
2022-10-23T15:22:09.855Z,86.95
2022-10-23T15:24:36.760Z,87.15
2022-10-23T15:27:03.598Z,86.76
2022-10-23T15:29:30.384Z,86.56
2022-10-23T15:32:01.572Z,86.25
2022-10-23T15:34:29.396Z,85.78
2022-10-23T15:36:57.727Z,84.85
2022-10-23T15:39:27.737Z,84.00
2022-10-23T15:41:55.520Z,85.51
2022-10-23T15:44:25.177Z,85.26
2022-10-23T15:46:52.257Z,85.56
2022-10-23T15:49:19.758Z,85.28
2022-10-23T15:51:47.023Z,84.37
2022-10-23T15:54:18.467Z,84.46
2022-10-23T15:56:47.382Z,84.57
2022-10-23T15:59:14.884Z,84.06
2022-10-23T16:01:41.843Z,83.76
2022-10-23T16:04:08.840Z,84.01
2022-10-23T16:06:35.664Z,84.00
2022-10-23T16:09:02.843Z,83.30
2022-10-23T16:11:33.905Z,83.30
2022-10-23T16:14:00.845Z,83.00
2022-10-23T16:16:28.347Z,83.06
2022-10-23T16:18:55.160Z,82.84
2022-10-23T16:21:28.112Z,83.28
2022-10-23T16:23:57.406Z,83.61
2022-10-23T16:26:24.157Z,83.41
2022-10-23T16:28:55.555Z,82.82
2022-10-23T16:31:24.043Z,83.53
2022-10-23T16:33:52.532Z,83.76
2022-10-23T16:36:20.743Z,83.67
2022-10-23T16:38:47.567Z,84.25
2022-10-23T16:41:14.372Z,83.99
2022-10-23T16:43:41.150Z,83.31
2022-10-23T16:46:13.026Z,83.29
2022-10-23T16:48:40.610Z,83.91
2022-10-23T16:51:09.523Z,83.27
2022-10-23T16:53:38.377Z,83.57
2022-10-23T16:56:07.361Z,83.80
2022-10-23T16:58:34.449Z,84.15
2022-10-23T17:01:02.635Z,83.66
2022-10-23T17:03:30.298Z,83.28
2022-10-23T17:06:01.958Z,83.10
2022-10-23T17:08:29.394Z,83.39
2022-10-23T17:11:18.035Z,83.17
2022-10-23T17:13:48.359Z,83.90
2022-10-23T17:16:16.966Z,83.83
2022-10-23T17:18:44.847Z,84.44
2022-10-23T17:21:13.497Z,84.35
2022-10-23T17:23:41.028Z,84.71
2022-10-23T17:26:12.467Z,84.97
2022-10-23T17:28:42.492Z,85.16
2022-10-23T17:31:41.354Z,86.44
2022-10-23T17:34:12.642Z,86.22
2022-10-23T17:36:45.943Z,86.62
2022-10-23T17:39:15.731Z,87.15
2022-10-23T17:41:42.987Z,87.20
2022-10-23T17:44:10.844Z,87.32
2022-10-23T17:46:37.757Z,87.23
2022-10-23T17:49:05.274Z,86.64
2022-10-23T17:51:34.403Z,86.90
2022-10-23T17:54:06.478Z,87.14
2022-10-23T17:56:34.636Z,87.17
2022-10-23T17:59:05.230Z,86.91
2022-10-23T18:01:32.581Z,87.13
2022-10-23T18:04:01.558Z,86.93
2022-10-23T18:06:35.366Z,86.81
2022-10-23T18:09:04.206Z,87.04
2022-10-23T18:11:37.343Z,87.26
2022-10-23T18:14:06.350Z,87.23
2022-10-23T18:16:34.727Z,87.56
2022-10-23T18:19:02.239Z,87.65
2022-10-23T18:21:29.070Z,87.33
2022-10-23T18:23:58.013Z,87.59
2022-10-23T18:26:28.040Z,87.57
2022-10-23T18:28:57.242Z,88.42
2022-10-23T18:31:25.932Z,87.69
2022-10-23T18:34:12.111Z,87.27
2022-10-23T18:36:40.758Z,87.48
2022-10-23T18:39:09.909Z,87.31
2022-10-23T18:41:40.101Z,86.98
2022-10-23T18:44:07.768Z,86.79
2022-10-23T18:46:35.489Z,86.78
2022-10-23T18:49:02.500Z,86.19
2022-10-23T18:51:32.803Z,86.43
2022-10-23T18:54:05.867Z,86.48
2022-10-23T18:56:34.225Z,86.20
2022-10-23T18:59:03.211Z,85.67
2022-10-23T19:01:31.012Z,85.72
2022-10-23T19:03:59.469Z,85.23
2022-10-23T19:06:26.202Z,85.20
2022-10-23T19:08:53.161Z,84.86
2022-10-23T19:11:21.852Z,84.53
2022-10-23T19:13:48.668Z,84.07
2022-10-23T19:16:19.855Z,84.24
2022-10-23T19:18:51.451Z,84.15
2022-10-23T19:21:22.273Z,83.99
2022-10-23T19:23:49.736Z,83.80
2022-10-23T19:26:16.905Z,84.09
2022-10-23T19:28:48.477Z,83.98
2022-10-23T19:31:15.465Z,84.06
2022-10-23T19:33:42.397Z,83.78
2022-10-23T19:36:13.840Z,84.13
2022-10-23T19:38:42.263Z,84.41
2022-10-23T19:41:09.667Z,84.42
2022-10-23T19:43:37.857Z,84.21
2022-10-23T19:46:09.255Z,85.14
2022-10-23T19:48:42.670Z,85.89
2022-10-23T19:51:09.616Z,86.53
2022-10-23T19:53:36.813Z,86.72
2022-10-23T19:56:05.710Z,87.15
2022-10-23T19:58:32.630Z,87.25
2022-10-23T20:00:59.700Z,87.17
2022-10-23T20:03:26.603Z,87.28
2022-10-23T20:05:53.323Z,87.33
2022-10-23T20:08:20.029Z,87.35
2022-10-23T20:10:48.192Z,87.46
2022-10-23T20:13:20.275Z,87.18
2022-10-23T20:15:47.502Z,87.44
2022-10-23T20:18:14.378Z,87.47
2022-10-23T20:20:42.370Z,87.47
2022-10-23T20:23:09.305Z,87.42
2022-10-23T20:25:36.116Z,87.08
2022-10-23T20:28:03.883Z,87.32
2022-10-23T20:30:30.738Z,87.27
2022-10-23T20:32:57.602Z,87.12
2022-10-23T20:35:24.374Z,86.91
2022-10-23T20:37:51.047Z,86.99
2022-10-23T20:40:17.799Z,86.48
2022-10-23T20:42:44.509Z,86.58
2022-10-23T20:45:11.241Z,86.50
2022-10-23T20:47:39.104Z,86.66
2022-10-23T20:50:06.283Z,86.65
2022-10-23T20:55:05.001Z,86.55
2022-10-23T20:57:31.738Z,86.67
2022-10-23T20:59:59.408Z,86.55
2022-10-23T21:02:26.484Z,86.72
2022-10-23T21:04:53.316Z,86.05
2022-10-23T21:07:20.987Z,85.74
2022-10-23T21:09:47.828Z,85.89
2022-10-23T21:12:14.636Z,86.14
2022-10-23T21:14:41.404Z,86.02
2022-10-23T21:17:09.158Z,86.05
2022-10-23T21:19:36.687Z,86.18
2022-10-23T21:22:03.666Z,85.99
2022-10-23T21:24:30.692Z,86.25
2022-10-23T21:26:57.408Z,86.14
2022-10-23T21:29:24.112Z,85.72
2022-10-23T21:31:56.788Z,84.76
2022-10-23T21:34:25.090Z,84.54
2022-10-23T21:37:12.845Z,84.27
2022-10-23T21:39:39.057Z,84.75
2022-10-23T21:42:06.003Z,84.14
2022-10-23T21:44:32.874Z,83.64
2022-10-23T21:47:00.849Z,83.75
2022-10-23T21:49:27.570Z,83.29
2022-10-23T21:51:55.234Z,83.03
2022-10-23T21:54:22.592Z,83.33
2022-10-23T21:56:51.219Z,82.90
2022-10-23T21:59:20.907Z,83.21
2022-10-23T22:01:49.361Z,83.48
2022-10-23T22:04:18.658Z,83.77
2022-10-23T22:06:47.176Z,84.20
2022-10-23T22:09:17.672Z,84.42
2022-10-23T22:11:44.451Z,84.49
2022-10-23T22:14:11.274Z,84.50
2022-10-23T22:16:38.232Z,84.68
2022-10-23T22:19:05.239Z,84.79
2022-10-23T22:21:31.999Z,84.70
2022-10-23T22:24:00.922Z,84.84
2022-10-23T22:26:29.597Z,85.14
2022-10-23T22:28:59.193Z,84.59
2022-10-23T22:31:29.213Z,84.70
2022-10-23T22:33:56.551Z,85.08
2022-10-23T22:36:23.446Z,85.55
2022-10-23T22:38:50.426Z,85.03
2022-10-23T22:41:17.689Z,85.43
2022-10-23T22:43:44.736Z,85.17
2022-10-23T22:46:19.061Z,84.95
2022-10-23T22:48:46.132Z,85.35
2022-10-23T22:51:16.021Z,85.35
2022-10-23T22:53:44.047Z,85.74
2022-10-23T22:56:14.264Z,85.90
2022-10-23T22:58:41.189Z,85.73
2022-10-23T23:01:13.857Z,85.21
2022-10-23T23:03:40.843Z,86.04
2022-10-23T23:06:09.186Z,86.17
2022-10-23T23:08:37.928Z,86.26
2022-10-23T23:11:06.019Z,86.40
2022-10-23T23:13:32.862Z,86.66
2022-10-23T23:15:59.978Z,86.77
2022-10-23T23:18:27.425Z,87.25
2022-10-23T23:20:54.259Z,87.25
2022-10-23T23:23:21.365Z,87.13
2022-10-23T23:25:49.997Z,87.15
2022-10-23T23:28:20.574Z,86.63
2022-10-23T23:30:47.858Z,87.12
2022-10-23T23:33:16.667Z,86.87
2022-10-23T23:35:46.036Z,86.94
2022-10-23T23:38:13.745Z,86.61
2022-10-23T23:40:40.557Z,86.57
2022-10-23T23:43:07.369Z,86.77
2022-10-23T23:45:34.261Z,86.49
2022-10-23T23:48:00.999Z,86.30
2022-10-23T23:50:28.165Z,85.97
2022-10-23T23:52:55.048Z,86.03
2022-10-23T23:55:22.006Z,86.02
2022-10-23T23:57:48.702Z,86.07
